• Join FlightAware (Why Join?)
  • Login
  • US Flag 
01:45AM EDT


 

Airport Tracker/Info


-or-


 

Live Flight TrackerFlight Track Log ✈ N449ND ✈ 12-Jun-2014 ✈ KPBI - KSUA

Flight Track Log - Related Links

Times and Time Zones

All times are in EDT time to prevent confusion due to time zone crossing. See the N449ND flight status page for this flight to view local times or setup timezone preferences in your user account.

Time Position Orientation Groundspeed Altitude Reporting Facility
EDT Latitude Longitude Course Direction KTS MPH feet Rate Location/Type
05:37PM 26.7558 -80.0522 46° Northeast 95 109 2,000  Level Miami Center
05:38PM 26.7861 -80.0606 346° North 111 128 2,500 480 Climbing Miami Center
05:39PM 26.8122 -80.0633 355° North 95 109 3,100 540 Climbing Miami Center
05:40PM 26.8089 -80.1333 North  Level FlightAware Approximate
05:40PM 26.8381 -80.0639 359° North 92 106 3,700  Level Miami Center
05:41PM 26.8332 -80.1394 342° North  Level FlightAware Approximate
05:41PM 26.8633 -80.0739 341° North 92 106 4,000  Level Miami Center
05:42PM 26.8919 -80.0856 340° North 100 115 4,000  Level Miami Center
05:43PM 26.9219 -80.0997 337° Northwest 111 128 4,000  Level Miami Center
05:44PM 26.9458 -80.1131 334° Northwest 100 115 4,000  Level Miami Center
05:45PM 26.9764 -80.1261 339° North 107 123 4,000  Level Miami Center
05:46PM 27.0044 -80.1417 334° Northwest 108 124 4,000 -60 Level Miami Center
05:47PM 27.0333 -80.1539 339° North 108 124 3,900  Descending Miami Center
05:48PM 27.0606 -80.1661 338° Northwest 102 117 4,000 60 Climbing Miami Center
05:49PM 27.0875 -80.1803 335° Northwest 99 114 4,100  Climbing Miami Center
05:50PM 27.1153 -80.1919 340° North 103 119 4,100  Level Miami Center
05:51PM 27.1417 -80.2025 340° North 103 119 4,100 -60 Level Miami Center
05:52PM 27.1447 -80.2319 277° West 98 113 4,000 -120 Descending Miami Center
05:54PM 27.1741 -80.2115 32° Northeast  Level FlightAware Approximate
06:01PM 27.1667 -80.2167 24° Northeast  Level FlightAware Approximate
06:02PM 27.1817 -80.2213 138° Southeast  Level Estimated
06:03PM 27.1817 -80.2213 24° Northeast  Level Estimated
06:04PM 27.1817 -80.2213 165° South  Level Estimated
06:05PM 27.1817 -80.2213 24° Northeast  Level Estimated
06:06PM 27.1817 -80.2213 165° South  Level Estimated